Time;durP1;ratioP1;P1;durP2;ratioP2;P2;SDS_P1;SDS_P2;PMS_P1;PMS_P2;Temp;Humidity;BMP_temperature;BMP_pressure;BME280_temperature;BME280_humidity;BME280_pressure;Samples;Min_cycle;Max_cycle;Signal;HPM_P1;HPM_P2
2022/04/29 00:00:48;;;;;;;1.33;1.27;;;9.60;99.90;;;;;;5250134;28;20023;-77
2022/04/29 00:03:24;;;;;;;0.75;0.75;;;9.50;99.90;;;;;;5250042;28;20091;-77
2022/04/29 00:05:56;;;;;;;0.60;0.60;;;9.40;99.90;;;;;;5216921;28;20100;-77
2022/04/29 00:08:30;;;;;;;0.47;0.47;;;9.30;99.90;;;;;;5211149;28;20112;-78
2022/04/29 00:11:03;;;;;;;0.52;0.52;;;9.20;99.90;;;;;;5230124;28;20037;-77
2022/04/29 00:13:39;;;;;;;3.83;1.90;;;9.20;99.90;;;;;;5232991;28;20032;-77
2022/04/29 00:16:13;;;;;;;0.80;0.80;;;9.10;99.90;;;;;;5221163;28;20031;-79
2022/04/29 00:18:47;;;;;;;;;;;9.10;99.90;;;;;;5245602;28;20032;-78
2022/04/29 00:21:20;;;;;;;0.68;0.68;;;9.00;99.90;;;;;;5245281;28;19918;-79
2022/04/29 00:23:56;;;;;;;0.70;0.70;;;8.80;99.90;;;;;;5228763;28;20317;-77
2022/04/29 00:26:27;;;;;;;0.90;0.90;;;8.70;99.90;;;;;;5240263;28;20031;-78
2022/04/29 00:28:59;;;;;;;0.70;0.70;;;8.60;99.90;;;;;;5243323;28;20040;-78
2022/04/29 00:31:47;;;;;;;0.40;0.40;;;8.60;99.90;;;;;;5242867;28;20032;-77
2022/04/29 00:34:18;;;;;;;0.90;0.90;;;8.50;99.90;;;;;;5227197;28;20516;-78
2022/04/29 00:36:49;;;;;;;0.60;0.60;;;8.30;99.90;;;;;;5225561;28;20036;-78
2022/04/29 00:39:20;;;;;;;0.77;0.77;;;8.20;99.90;;;;;;5226228;28;20559;-78
2022/04/29 00:41:52;;;;;;;0.70;0.70;;;8.10;99.90;;;;;;5244324;28;20016;-77
2022/04/29 00:44:23;;;;;;;0.68;0.68;;;8.00;99.90;;;;;;5241663;28;20020;-79
2022/04/29 00:46:54;;;;;;;1.00;1.00;;;8.00;99.90;;;;;;5210733;28;20032;-78
2022/04/29 00:49:25;;;;;;;0.70;0.70;;;8.10;99.90;;;;;;5245678;28;20024;-76
2022/04/29 00:51:57;;;;;;;0.80;0.80;;;8.10;99.90;;;;;;5231580;28;20048;-77
2022/04/29 00:54:31;;;;;;;0.85;0.85;;;8.00;99.90;;;;;;5244051;28;20033;-79
2022/04/29 00:57:11;;;;;;;0.90;0.90;;;8.00;99.90;;;;;;5244905;28;20032;-78
2022/04/29 01:00:02;;;;;;;1.25;1.25;;;7.90;99.90;;;;;;5245013;28;20024;-77
2022/04/29 01:02:41;;;;;;;0.40;0.40;;;7.90;99.90;;;;;;5265822;28;20018;-76
2022/04/29 01:05:18;;;;;;;0.77;0.77;;;7.90;99.90;;;;;;5242408;28;20056;-77
2022/04/29 01:07:52;;;;;;;0.70;0.70;;;8.00;99.90;;;;;;5231613;28;20036;-78
2022/04/29 01:10:24;;;;;;;0.70;0.70;;;8.10;99.90;;;;;;5247817;28;20037;-79
2022/04/29 01:12:59;;;;;;;0.43;0.43;;;8.10;99.90;;;;;;5246728;28;20044;-77
2022/04/29 01:15:32;;;;;;;0.88;0.88;;;8.10;99.90;;;;;;5232032;28;20039;-79
2022/04/29 01:18:10;;;;;;;0.68;0.68;;;7.90;99.90;;;;;;5244393;28;20471;-79
2022/04/29 01:20:44;;;;;;;0.43;0.43;;;7.90;99.90;;;;;;5253047;28;20589;-79
2022/04/29 01:23:20;;;;;;;0.73;0.73;;;7.90;99.90;;;;;;5271341;28;20040;-79
2022/04/29 01:25:57;;;;;;;0.50;0.50;;;8.20;99.90;;;;;;5272980;28;20030;-77
2022/04/29 01:28:34;;;;;;;0.60;0.60;;;8.20;99.90;;;;;;5234973;28;20039;-76
2022/04/29 01:31:06;;;;;;;0.65;0.65;;;8.40;99.90;;;;;;5224996;28;20351;-77
2022/04/29 01:33:40;;;;;;;0.75;0.75;;;8.40;99.90;;;;;;5246811;28;20028;-78
2022/04/29 01:36:12;;;;;;;0.60;0.60;;;8.40;99.90;;;;;;5265264;28;20020;-77
2022/04/29 01:38:45;;;;;;;0.57;0.57;;;8.40;99.90;;;;;;5274657;28;20435;-78
2022/04/29 01:41:17;;;;;;;0.65;0.65;;;8.30;99.90;;;;;;5255424;28;20024;-77
2022/04/29 01:43:51;;;;;;;0.60;0.60;;;8.40;99.90;;;;;;5264309;28;20042;-77
2022/04/29 01:46:22;;;;;;;0.98;0.98;;;8.30;99.90;;;;;;5252615;28;20027;-78
2022/04/29 01:48:53;;;;;;;0.80;0.80;;;8.20;99.90;;;;;;5216506;28;20033;-77
2022/04/29 01:51:32;;;;;;;0.40;0.40;;;8.10;99.90;;;;;;5213567;28;20059;-78
2022/04/29 01:54:09;;;;;;;0.30;0.30;;;8.10;99.90;;;;;;5214495;28;20035;-76
2022/04/29 01:56:47;;;;;;;0.73;0.73;;;8.10;99.90;;;;;;5233912;28;20032;-78
2022/04/29 01:59:20;;;;;;;0.50;0.50;;;8.20;99.90;;;;;;5246314;28;20025;-76
2022/04/29 02:01:53;;;;;;;0.65;0.65;;;8.30;99.90;;;;;;5247929;28;20017;-77
2022/04/29 02:04:28;;;;;;;1.15;1.13;;;8.40;99.90;;;;;;5221378;28;20184;-77
2022/04/29 02:07:02;;;;;;;;;;;8.30;99.90;;;;;;5231718;28;20017;-78
2022/04/29 02:09:36;;;;;;;0.38;0.38;;;8.40;99.90;;;;;;5213907;28;19909;-76
2022/04/29 02:12:11;;;;;;;;;;;8.40;99.90;;;;;;5233464;28;20234;-77
2022/04/29 02:14:46;;;;;;;0.70;0.70;;;8.20;99.90;;;;;;5251685;28;19914;-78
2022/04/29 02:17:19;;;;;;;0.77;0.77;;;8.10;99.90;;;;;;5251865;28;20454;-79
2022/04/29 02:19:51;;;;;;;0.57;0.57;;;8.10;99.90;;;;;;5270458;28;20328;-78
2022/04/29 02:22:22;;;;;;;0.50;0.50;;;8.10;99.90;;;;;;5270878;28;20255;-78
2022/04/29 02:25:00;;;;;;;0.70;0.70;;;8.10;99.90;;;;;;5251656;28;20028;-78
2022/04/29 02:27:38;;;;;;;0.60;0.60;;;8.00;99.90;;;;;;5233875;28;20013;-78
2022/04/29 02:30:15;;;;;;;0.65;0.65;;;8.00;99.90;;;;;;5232501;28;20067;-79
2022/04/29 02:32:46;;;;;;;0.60;0.60;;;7.90;99.90;;;;;;5227065;28;20021;-79
2022/04/29 02:35:23;;;;;;;0.75;0.75;;;7.80;99.90;;;;;;5226204;28;20269;-76
2022/04/29 02:37:56;;;;;;;0.45;0.45;;;7.80;99.90;;;;;;5228323;28;20396;-79
2022/04/29 02:40:35;;;;;;;0.70;0.70;;;7.80;99.90;;;;;;5210481;28;20033;-79
2022/04/29 02:43:08;;;;;;;0.90;0.90;;;7.70;99.90;;;;;;5228436;28;20033;-79
2022/04/29 02:45:40;;;;;;;0.70;0.70;;;7.70;99.90;;;;;;5223591;28;20039;-78
2022/04/29 02:48:11;;;;;;;1.08;1.08;;;7.60;99.90;;;;;;5247225;28;20032;-78
2022/04/29 02:50:44;;;;;;;0.45;0.45;;;7.50;99.90;;;;;;5246522;28;20042;-79
2022/04/29 02:53:15;;;;;;;0.60;0.60;;;7.40;99.90;;;;;;5242739;28;20333;-79
2022/04/29 02:55:49;;;;;;;0.47;0.47;;;7.30;99.90;;;;;;5229369;28;20043;-78
2022/04/29 02:58:29;;;;;;;0.95;0.95;;;7.20;99.90;;;;;;5246216;28;20025;-79
2022/04/29 03:01:03;;;;;;;0.50;0.50;;;7.00;99.90;;;;;;5229745;28;20360;-79
2022/04/29 03:03:38;;;;;;;0.40;0.40;;;6.90;99.90;;;;;;5212374;28;20436;-77
2022/04/29 03:06:09;;;;;;;0.60;0.60;;;6.80;99.90;;;;;;5234707;28;20047;-79
2022/04/29 03:08:42;;;;;;;0.57;0.57;;;6.80;99.90;;;;;;5210245;28;20035;-80
2022/04/29 03:11:14;;;;;;;0.77;0.77;;;6.80;99.90;;;;;;5244366;28;20030;-78
2022/04/29 03:13:50;;;;;;;0.50;0.50;;;6.70;99.90;;;;;;5226605;28;20036;-79
2022/04/29 03:16:26;;;;;;;0.40;0.40;;;6.70;99.90;;;;;;5247707;28;20191;-77
2022/04/29 03:18:58;;;;;;;0.90;0.90;;;6.70;99.90;;;;;;5229182;28;20031;-79
2022/04/29 03:21:33;;;;;;;1.20;1.20;;;6.70;99.90;;;;;;5211538;28;20067;-80
2022/04/29 03:24:07;;;;;;;0.55;0.55;;;6.80;99.90;;;;;;5249797;28;20034;-79
2022/04/29 03:26:40;;;;;;;0.60;0.60;;;6.80;99.90;;;;;;5231274;28;20028;-78
2022/04/29 03:29:14;;;;;;;0.65;0.65;;;7.00;99.90;;;;;;5246821;28;20922;-78
2022/04/29 03:31:50;;;;;;;0.40;0.40;;;7.10;99.90;;;;;;5245209;28;20032;-78
2022/04/29 03:34:25;;;;;;;0.82;0.82;;;7.20;99.90;;;;;;5245311;28;20042;-79
2022/04/29 03:36:56;;;;;;;0.75;0.75;;;7.30;99.90;;;;;;5252006;28;20031;-79
2022/04/29 03:39:35;;;;;;;0.50;0.50;;;7.30;99.90;;;;;;5266391;28;20032;-78
2022/04/29 03:42:06;;;;;;;0.50;0.50;;;7.30;99.90;;;;;;5266133;28;20016;-80
2022/04/29 03:44:40;;;;;;;0.47;0.47;;;7.10;99.90;;;;;;5251923;28;20046;-80
2022/04/29 03:47:14;;;;;;;0.50;0.50;;;6.90;99.90;;;;;;5246184;28;20030;-76
2022/04/29 03:49:45;;;;;;;0.82;0.82;;;6.70;99.90;;;;;;5224320;28;20040;-80
2022/04/29 03:52:17;;;;;;;1.20;1.15;;;6.60;99.90;;;;;;5244916;28;20537;-78
2022/04/29 03:54:50;;;;;;;0.73;0.73;;;6.50;99.90;;;;;;5245159;28;20055;-79
2022/04/29 03:57:27;;;;;;;0.40;0.40;;;6.50;99.90;;;;;;5228325;28;20589;-77
2022/04/29 04:00:00;;;;;;;0.50;0.50;;;6.50;99.90;;;;;;5245446;28;20889;-80
2022/04/29 04:02:34;;;;;;;0.93;0.93;;;6.70;99.90;;;;;;5245980;28;20416;-78
2022/04/29 04:05:13;;;;;;;0.68;0.68;;;6.80;99.90;;;;;;5236172;28;20058;-78
2022/04/29 04:07:49;;;;;;;0.55;0.55;;;7.00;99.90;;;;;;5245940;28;20088;-77
2022/04/29 04:10:23;;;;;;;0.47;0.47;;;7.10;99.90;;;;;;5228240;28;20032;-78
2022/04/29 04:12:54;;;;;;;0.52;0.52;;;7.30;99.90;;;;;;5245621;28;20036;-77
2022/04/29 04:15:26;;;;;;;0.85;0.85;;;7.40;99.90;;;;;;5244879;28;20032;-79
2022/04/29 04:18:01;;;;;;;1.40;1.30;;;7.70;99.90;;;;;;5232164;28;20258;-77
2022/04/29 04:20:33;;;;;;;0.80;0.80;;;7.80;99.90;;;;;;5245742;28;20048;-78
2022/04/29 04:23:04;;;;;;;0.75;0.75;;;8.10;99.90;;;;;;5244454;28;20032;-78
2022/04/29 04:25:38;;;;;;;0.88;0.88;;;8.30;99.90;;;;;;5230200;28;20032;-79
2022/04/29 04:28:13;;;;;;;0.80;0.80;;;8.40;99.90;;;;;;5216617;28;20037;-77
2022/04/29 04:30:46;;;;;;;0.75;0.75;;;8.50;99.90;;;;;;5228608;28;20025;-76
2022/04/29 04:33:20;;;;;;;0.68;0.68;;;8.60;99.90;;;;;;5209856;28;20042;-78
2022/04/29 04:35:51;;;;;;;0.60;0.60;;;8.60;99.90;;;;;;5241562;28;20025;-77
2022/04/29 04:38:22;;;;;;;0.70;0.70;;;8.70;99.90;;;;;;5209173;28;20249;-77
2022/04/29 04:40:55;;;;;;;0.70;0.70;;;8.80;99.90;;;;;;5246560;28;20036;-78
2022/04/29 04:43:29;;;;;;;0.60;0.60;;;8.90;99.90;;;;;;5246492;28;20020;-79
2022/04/29 04:46:06;;;;;;;1.00;1.00;;;9.10;99.90;;;;;;5246195;28;20058;-79
2022/04/29 04:48:40;;;;;;;0.90;0.90;;;9.30;99.90;;;;;;5246089;28;20058;-78
2022/04/29 04:51:11;;;;;;;1.80;1.70;;;9.60;99.90;;;;;;5227003;28;20040;-77
2022/04/29 04:53:47;;;;;;;0.45;0.45;;;10.00;99.90;;;;;;5245403;28;20020;-78
2022/04/29 04:56:18;;;;;;;0.60;0.60;;;10.30;99.90;;;;;;5245279;28;20028;-78
2022/04/29 04:58:50;;;;;;;0.63;0.63;;;10.60;99.90;;;;;;5244677;28;20024;-78
2022/04/29 05:01:21;;;;;;;0.85;0.85;;;10.70;99.90;;;;;;5227018;28;20071;-78
2022/04/29 05:03:53;;;;;;;2.00;1.90;;;10.90;99.90;;;;;;5227526;28;20028;-78
2022/04/29 05:06:24;;;;;;;1.10;1.10;;;10.90;99.90;;;;;;5231708;28;20032;-78
2022/04/29 05:08:55;;;;;;;0.88;0.88;;;11.10;99.90;;;;;;5245316;28;20035;-78
2022/04/29 05:11:26;;;;;;;1.25;1.25;;;11.30;99.90;;;;;;5252620;28;20038;-79
2022/04/29 05:13:58;;;;;;;7.53;1.55;;;11.50;99.90;;;;;;5248378;28;20020;-79
2022/04/29 05:16:30;;;;;;;0.90;0.90;;;11.70;99.90;;;;;;5266349;28;20020;-78
2022/04/29 05:19:03;;;;;;;2.00;1.85;;;11.90;99.90;;;;;;5245419;28;20258;-78
2022/04/29 05:21:37;;;;;;;0.80;0.80;;;12.20;99.90;;;;;;5244754;28;20032;-79
2022/04/29 05:24:09;;;;;;;1.00;1.00;;;12.40;99.90;;;;;;5227380;28;20029;-79
2022/04/29 05:26:42;;;;;;;1.27;1.23;;;12.70;99.90;;;;;;5210546;28;20504;-78
2022/04/29 05:29:13;;;;;;;0.98;0.98;;;13.00;99.90;;;;;;5243954;28;20422;-78
2022/04/29 05:31:47;;;;;;;1.02;1.02;;;13.20;99.90;;;;;;5244317;28;20028;-79
2022/04/29 05:34:18;;;;;;;1.23;1.23;;;13.40;99.90;;;;;;5245250;28;20040;-79
2022/04/29 05:36:52;;;;;;;0.75;0.75;;;13.50;99.90;;;;;;5238586;28;20042;-78
2022/04/29 05:42:14;;;;;;;0.70;0.70;;;13.50;99.90;;;;;;5263586;28;20051;-78
2022/04/29 05:44:50;;;;;;;0.93;0.93;;;13.60;99.90;;;;;;5249099;28;20021;-79
2022/04/29 05:47:25;;;;;;;0.65;0.65;;;13.60;99.90;;;;;;5267274;28;20028;-78
2022/04/29 05:49:57;;;;;;;1.13;1.13;;;13.50;99.90;;;;;;5244837;28;20032;-80
2022/04/29 05:52:31;;;;;;;1.00;1.00;;;13.60;99.90;;;;;;5245712;28;20048;-80
2022/04/29 05:55:02;;;;;;;1.93;1.83;;;13.80;99.90;;;;;;5249867;28;20036;-79
2022/04/29 05:57:39;;;;;;;1.52;1.42;;;13.80;99.90;;;;;;5232883;28;20099;-79
2022/04/29 06:00:14;;;;;;;0.75;0.75;;;13.70;99.90;;;;;;5250691;28;20036;-75
2022/04/29 06:02:46;;;;;;;1.00;1.00;;;13.60;99.90;;;;;;5233196;28;20016;-78
2022/04/29 06:05:18;;;;;;;1.35;1.25;;;13.70;99.90;;;;;;5249813;28;20079;-78
2022/04/29 06:07:53;;;;;;;1.00;1.00;;;13.90;99.90;;;;;;5255212;28;20032;-79
2022/04/29 06:10:24;;;;;;;;;;;14.10;99.90;;;;;;5233846;28;20038;-78
2022/04/29 06:12:55;;;;;;;0.88;0.88;;;14.20;99.90;;;;;;5268866;28;19914;-77
2022/04/29 06:15:27;;;;;;;1.17;1.13;;;14.10;99.90;;;;;;5269754;28;20031;-78
2022/04/29 06:18:03;;;;;;;0.70;0.70;;;13.90;99.90;;;;;;5240717;28;20020;-78
2022/04/29 06:20:36;;;;;;;1.65;1.55;;;13.90;99.90;;;;;;5234932;28;20063;-79
2022/04/29 06:23:08;;;;;;;1.00;1.00;;;14.00;99.90;;;;;;5237254;28;20034;-79
2022/04/29 06:25:39;;;;;;;2.28;1.85;;;14.00;99.90;;;;;;5254292;28;20024;-78
2022/04/29 06:28:14;;;;;;;0.80;0.80;;;14.00;99.90;;;;;;5258859;28;20243;-78
2022/04/29 06:30:46;;;;;;;0.70;0.70;;;14.20;99.90;;;;;;5261552;28;20036;-78
2022/04/29 06:33:17;;;;;;;1.27;1.27;;;14.10;99.90;;;;;;5251506;28;20039;-78
2022/04/29 06:35:50;;;;;;;0.95;0.95;;;14.10;99.90;;;;;;5269387;28;20028;-78
2022/04/29 06:38:24;;;;;;;1.02;1.02;;;14.10;99.90;;;;;;5258597;28;20323;-79
2022/04/29 06:40:56;;;;;;;0.90;0.90;;;14.10;99.90;;;;;;5249697;28;20032;-78
2022/04/29 06:43:29;;;;;;;1.00;1.00;;;14.10;99.90;;;;;;5249420;28;20034;-79
2022/04/29 06:46:01;;;;;;;1.63;1.52;;;14.30;99.90;;;;;;5227409;28;20025;-79
2022/04/29 06:48:32;;;;;;;1.13;1.05;;;14.30;99.90;;;;;;5241024;28;20024;-79
2022/04/29 06:51:06;;;;;;;0.90;0.90;;;14.40;99.90;;;;;;5230287;28;20056;-79
2022/04/29 06:53:45;;;;;;;1.60;1.50;;;14.30;99.90;;;;;;5248816;28;20030;-78
2022/04/29 06:56:25;;;;;;;1.60;1.60;;;14.60;99.90;;;;;;5246688;28;20048;-77
2022/04/29 06:58:58;;;;;;;0.95;0.95;;;14.90;99.90;;;;;;5247528;28;20039;-77
2022/04/29 07:01:30;;;;;;;0.70;0.70;;;15.00;99.90;;;;;;5247936;28;20028;-77
2022/04/29 07:04:01;;;;;;;0.90;0.90;;;15.40;99.90;;;;;;5246003;28;20553;-78
2022/04/29 07:06:32;;;;;;;0.77;0.77;;;15.60;99.90;;;;;;5217317;28;20041;-78
2022/04/29 07:09:04;;;;;;;1.02;1.02;;;15.70;99.90;;;;;;5245656;28;20338;-77
2022/04/29 07:11:35;;;;;;;1.27;1.17;;;15.60;99.90;;;;;;5244718;28;20041;-78
2022/04/29 07:14:08;;;;;;;0.90;0.90;;;15.80;99.90;;;;;;5227953;28;20023;-80
2022/04/29 07:16:41;;;;;;;0.80;0.80;;;16.10;99.90;;;;;;5246329;28;20070;-78
2022/04/29 07:19:12;;;;;;;1.05;1.02;;;16.10;99.90;;;;;;5266097;28;20031;-79
2022/04/29 07:21:44;;;;;;;1.08;1.08;;;17.20;99.90;;;;;;5246761;28;20036;-78
2022/04/29 07:24:15;;;;;;;0.70;0.70;;;18.00;99.90;;;;;;5244892;28;20035;-79
2022/04/29 07:26:51;;;;;;;1.05;1.05;;;18.50;99.90;;;;;;5244345;28;20025;-79
2022/04/29 07:29:23;;;;;;;1.08;1.05;;;18.40;99.90;;;;;;5244414;28;20463;-77
2022/04/29 07:31:57;;;;;;;0.98;0.95;;;18.80;99.90;;;;;;5244237;28;20029;-79
2022/04/29 07:43:03;;;;;;;0.90;0.90;;;19.50;99.90;;;;;;5252868;28;20038;-78
2022/04/29 07:45:39;;;;;;;1.23;1.23;;;19.60;99.90;;;;;;5248145;28;20012;-79
2022/04/29 07:48:11;;;;;;;1.23;1.15;;;19.20;99.90;;;;;;5245419;28;20027;-80
2022/04/29 07:50:43;;;;;;;0.77;0.77;;;19.40;99.90;;;;;;5264450;28;20028;-78
2022/04/29 07:53:17;;;;;;;0.52;0.52;;;19.70;99.90;;;;;;5268263;28;20024;-79
2022/04/29 07:55:48;;;;;;;0.52;0.52;;;19.70;99.90;;;;;;5244217;28;20032;-78
2022/04/29 07:58:20;;;;;;;0.82;0.82;;;19.60;99.90;;;;;;5246272;28;20024;-77
2022/04/29 08:00:51;;;;;;;0.80;0.80;;;19.60;99.90;;;;;;5240789;28;20043;-78
2022/04/29 08:03:23;;;;;;;1.20;1.17;;;19.90;99.90;;;;;;5245341;28;20322;-78
2022/04/29 08:05:58;;;;;;;1.08;1.08;;;20.50;99.90;;;;;;5216826;28;20598;-77
2022/04/29 08:08:33;;;;;;;0.60;0.60;;;20.80;99.90;;;;;;5220294;28;20027;-76
2022/04/29 08:11:08;;;;;;;1.17;1.17;;;21.30;99.90;;;;;;5223823;28;20207;-76
2022/04/29 08:13:44;;;;;;;0.80;0.80;;;21.40;99.90;;;;;;5208930;28;20035;-77
2022/04/29 08:16:15;;;;;;;0.85;0.82;;;21.70;99.90;;;;;;5222146;28;20048;-77
2022/04/29 08:18:49;;;;;;;0.73;0.73;;;21.30;99.90;;;;;;5206810;28;20024;-77
2022/04/29 08:21:25;;;;;;;1.27;1.27;;;21.90;99.90;;;;;;5220353;28;20025;-76
2022/04/29 08:23:56;;;;;;;0.40;0.40;;;22.10;99.90;;;;;;5188908;28;20257;-77
2022/04/29 08:26:28;;;;;;;2.72;0.93;;;22.10;99.90;;;;;;5188818;28;20507;-74
2022/04/29 08:28:59;;;;;;;0.55;0.55;;;22.00;99.90;;;;;;5208766;28;20027;-77
2022/04/29 08:31:30;;;;;;;1.00;1.00;;;22.20;99.90;;;;;;5224319;28;20294;-79
2022/04/29 08:34:05;;;;;;;0.50;0.50;;;22.40;99.90;;;;;;5224209;28;20067;-79
2022/04/29 08:36:38;;;;;;;0.70;0.70;;;22.50;99.90;;;;;;5206958;28;20041;-79
2022/04/29 08:39:10;;;;;;;0.70;0.70;;;22.20;99.90;;;;;;5208100;28;20027;-78
2022/04/29 08:41:42;;;;;;;0.88;0.88;;;22.00;99.90;;;;;;5219309;28;20268;-80
2022/04/29 08:44:14;;;;;;;0.43;0.43;;;22.20;99.90;;;;;;5226307;28;20021;-80
2022/04/29 08:46:51;;;;;;;1.00;1.00;;;22.60;99.90;;;;;;5231696;28;20355;-78
2022/04/29 08:49:25;;;;;;;1.15;1.15;;;22.60;99.90;;;;;;5223400;28;20031;-79
2022/04/29 08:52:00;;;;;;;1.45;1.35;;;23.00;99.90;;;;;;5220781;28;20082;-77
2022/04/29 09:00:19;;;;;;;0.55;0.55;;;22.80;99.90;;;;;;5243952;28;20043;-77
2022/04/29 09:02:52;;;;;;;0.98;0.88;;;22.90;99.90;;;;;;5223501;28;20464;-76
2022/04/29 09:05:24;;;;;;;1.00;1.00;;;22.60;99.90;;;;;;5237115;28;20411;-80
2022/04/29 09:08:00;;;;;;;0.47;0.47;;;21.60;99.90;;;;;;5199291;28;20033;-76
2022/04/29 09:10:36;;;;;;;0.57;0.57;;;21.70;99.90;;;;;;5230195;28;20359;-78
2022/04/29 09:13:39;;;;;;;1.10;1.10;;;22.30;99.90;;;;;;5225925;28;20021;-79
2022/04/29 09:16:15;;;;;;;1.27;1.17;;;22.20;99.90;;;;;;5224750;28;20063;-77
2022/04/29 09:18:55;;;;;;;0.75;0.75;;;20.50;99.90;;;;;;5226532;28;20031;-76
2022/04/29 09:21:31;;;;;;;0.40;0.40;;;19.90;99.90;;;;;;5226180;28;20033;-80
2022/04/29 09:24:10;;;;;;;0.40;0.40;;;20.80;99.90;;;;;;5244487;28;20028;-78
2022/04/29 09:26:41;;;;;;;0.65;0.65;;;22.50;99.90;;;;;;5228669;28;20043;-77
2022/04/29 09:29:17;;;;;;;1.33;1.33;;;22.90;99.90;;;;;;5251745;28;20025;-79
2022/04/29 09:31:59;;;;;;;0.88;0.88;;;23.30;99.90;;;;;;5248379;28;20261;-78
2022/04/29 09:34:58;;;;;;;0.52;0.52;;;23.40;99.90;;;;;;5246460;28;20024;-75
2022/04/29 09:37:36;;;;;;;0.68;0.68;;;22.30;99.90;;;;;;5243490;28;20016;-75
2022/04/29 09:40:07;;;;;;;1.05;1.05;;;22.00;99.90;;;;;;5242156;28;20577;-76
2022/04/29 09:42:41;;;;;;;0.50;0.50;;;22.50;99.90;;;;;;5231029;28;20021;-74
2022/04/29 09:45:22;;;;;;;1.63;1.53;;;23.00;99.90;;;;;;5230295;28;20027;-75
2022/04/29 09:47:58;;;;;;;0.40;0.40;;;22.70;99.90;;;;;;5218231;28;20184;-77
2022/04/29 09:50:52;;;;;;;0.43;0.43;;;22.60;99.90;;;;;;5250811;28;20028;-79
2022/04/29 09:53:24;;;;;;;1.15;1.15;;;22.60;99.90;;;;;;5233439;28;20032;-75
2022/04/29 09:56:12;;;;;;;0.55;0.55;;;22.60;99.90;;;;;;5251268;28;20050;-77
2022/04/29 09:58:44;;;;;;;1.10;1.10;;;21.60;99.90;;;;;;5249869;28;20024;-78
2022/04/29 10:01:18;;;;;;;0.63;0.63;;;22.40;99.90;;;;;;5248843;28;20020;-75
2022/04/29 10:03:51;;;;;;;1.33;1.23;;;23.60;99.90;;;;;;5233038;28;20024;-75
2022/04/29 10:06:25;;;;;;;0.75;0.75;;;24.50;99.90;;;;;;5239270;28;20075;-76
2022/04/29 10:09:02;;;;;;;0.57;0.57;;;24.30;99.90;;;;;;5251781;28;20029;-76
2022/04/29 10:11:35;;;;;;;1.15;1.15;;;25.20;99.90;;;;;;5252416;28;20032;-75
2022/04/29 10:14:11;;;;;;;0.50;0.50;;;23.60;99.90;;;;;;5231036;28;20342;-77
2022/04/29 10:21:15;;;;;;;0.60;0.60;;;23.00;99.90;;;;;;5240347;28;20525;-77
2022/04/29 10:22:33;;;;;;;0.55;0.55;;;23.80;99.90;;;;;;5250153;28;20035;-77
2022/04/29 10:25:08;;;;;;;0.70;0.70;;;22.70;99.90;;;;;;5250385;28;20017;-77
2022/04/29 10:27:40;;;;;;;0.60;0.60;;;21.30;99.90;;;;;;5243804;28;20046;-77
2022/04/29 10:30:12;;;;;;;0.70;0.70;;;20.80;99.90;;;;;;5231887;28;20031;-78
2022/04/29 10:33:04;;;;;;;0.85;0.85;;;20.60;99.90;;;;;;5232355;28;20062;-78
2022/04/29 10:35:45;;;;;;;2.38;1.50;;;21.00;99.90;;;;;;5249160;28;20036;-78
2022/04/29 10:38:27;;;;;;;0.60;0.60;;;21.30;99.90;;;;;;5250001;28;20320;-76
2022/04/29 10:41:17;;;;;;;0.80;0.80;;;21.30;99.90;;;;;;5249184;28;20040;-76
2022/04/29 10:43:51;;;;;;;0.68;0.68;;;23.10;99.90;;;;;;5249758;28;20025;-76
2022/04/29 10:46:39;;;;;;;0.68;0.68;;;26.00;99.90;;;;;;5245479;28;20035;-77
2022/04/29 10:49:30;;;;;;;0.95;0.95;;;24.10;99.90;;;;;;5249063;28;20024;-76
2022/04/29 10:52:04;;;;;;;0.30;0.30;;;23.70;99.90;;;;;;5248751;28;20025;-79
2022/04/29 10:54:35;;;;;;;0.77;0.77;;;23.30;99.90;;;;;;5231506;28;20502;-78
2022/04/29 10:57:14;;;;;;;1.67;1.58;;;23.70;99.90;;;;;;5235747;28;20033;-79
2022/04/29 11:00:00;;;;;;;1.10;1.10;;;23.40;99.90;;;;;;5223291;28;20017;-79
2022/04/29 11:02:32;;;;;;;0.40;0.40;;;24.40;99.90;;;;;;5218638;28;20028;-76
2022/04/29 11:05:42;;;;;;;0.50;0.50;;;27.00;99.90;;;;;;5217323;28;20049;-80
2022/04/29 11:08:20;;;;;;;0.60;0.60;;;29.60;98.30;;;;;;5247342;28;20037;-78
2022/04/29 11:11:00;;;;;;;0.82;0.82;;;29.10;96.20;;;;;;5246875;28;20039;-78
2022/04/29 11:13:42;;;;;;;0.60;0.60;;;29.90;96.90;;;;;;5247067;28;20040;-78
2022/04/29 11:16:19;;;;;;;0.85;0.85;;;25.30;96.20;;;;;;5245963;28;20030;-78
2022/04/29 11:19:19;;;;;;;0.47;0.47;;;23.10;98.70;;;;;;5247447;28;20577;-81
2022/04/29 11:24:50;;;;;;;0.60;0.60;;;25.40;99.90;;;;;;5235383;28;20032;-78
2022/04/29 11:27:34;;;;;;;0.52;0.52;;;27.30;98.90;;;;;;5228016;28;20029;-79
2022/04/29 11:30:10;;;;;;;0.82;0.82;;;27.30;96.60;;;;;;5245794;28;20032;-79
2022/04/29 11:32:45;;;;;;;0.45;0.45;;;26.00;96.10;;;;;;5226663;28;20037;-79
2022/04/29 11:35:23;;;;;;;0.80;0.80;;;27.70;95.50;;;;;;5211680;28;20013;-77
2022/04/29 11:37:54;;;;;;;1.45;1.35;;;28.10;95.80;;;;;;5225600;28;20020;-78
2022/04/29 11:40:29;;;;;;;0.73;0.73;;;27.70;95.20;;;;;;5195526;28;20237;-78
2022/04/29 11:43:05;;;;;;;0.52;0.52;;;25.70;95.60;;;;;;5246722;28;20344;-79
2022/04/29 11:45:40;;;;;;;0.40;0.40;;;26.10;96.80;;;;;;5225465;28;20043;-78
2022/04/29 11:48:14;;;;;;;1.20;1.20;;;25.40;95.80;;;;;;5228028;28;20406;-79
2022/04/29 11:50:48;;;;;;;1.47;0.77;;;26.20;96.20;;;;;;5246141;28;20266;-79
2022/04/29 11:53:20;;;;;;;0.50;0.50;;;27.50;96.70;;;;;;5245638;28;20043;-80
2022/04/29 11:55:52;;;;;;;0.68;0.68;;;27.20;94.90;;;;;;5250633;28;20040;-79
2022/04/29 11:58:28;;;;;;;0.80;0.80;;;25.10;95.60;;;;;;5246577;28;20044;-75
2022/04/29 12:01:02;;;;;;;0.85;0.85;;;24.90;96.90;;;;;;5246490;28;20036;-79
2022/04/29 12:03:33;;;;;;;0.52;0.52;;;25.80;97.10;;;;;;5246570;28;20024;-81
2022/04/29 12:06:09;;;;;;;0.75;0.75;;;26.00;96.10;;;;;;5223515;28;20059;-78
2022/04/29 12:08:44;;;;;;;0.70;0.70;;;24.00;96.40;;;;;;5241565;28;20070;-78
2022/04/29 12:11:23;;;;;;;0.60;0.60;;;25.00;96.60;;;;;;5225485;28;20230;-79
2022/04/29 12:13:54;;;;;;;3.00;1.40;;;25.80;96.20;;;;;;5226163;28;20029;-78
2022/04/29 12:16:28;;;;;;;1.23;1.17;;;26.30;96.40;;;;;;5209264;28;20021;-76
2022/04/29 12:19:16;;;;;;;1.38;1.25;;;28.10;95.00;;;;;;5227150;28;20021;-78
2022/04/29 12:22:00;;;;;;;0.73;0.73;;;28.40;94.00;;;;;;5229533;28;20032;-80
2022/04/29 12:24:45;;;;;;;0.60;0.60;;;27.40;93.90;;;;;;5224002;28;20046;-81
2022/04/29 12:27:27;;;;;;;0.60;0.60;;;27.00;94.90;;;;;;5256766;28;20024;-79
2022/04/29 12:35:38;;;;;;;0.60;0.60;;;26.10;96.20;;;;;;5264389;28;20050;-79
2022/04/29 12:38:19;;;;;;;0.85;0.85;;;28.30;94.60;;;;;;5253651;28;20024;-79
2022/04/29 12:40:50;;;;;;;1.05;1.00;;;28.60;93.20;;;;;;5247878;28;20024;-80
2022/04/29 12:43:22;;;;;;;0.55;0.55;;;29.10;92.80;;;;;;5225903;28;20032;-76
2022/04/29 12:46:15;;;;;;;0.45;0.45;;;26.00;93.90;;;;;;5225298;28;20310;-79
2022/04/29 12:48:54;;;;;;;0.80;0.80;;;25.50;94.90;;;;;;5239936;28;20355;-80
2022/04/29 12:51:32;;;;;;;1.20;0.95;;;27.80;94.00;;;;;;5225884;28;20043;-80
2022/04/29 12:54:06;;;;;;;0.50;0.50;;;29.50;92.70;;;;;;5228581;28;20314;-78
2022/04/29 12:56:37;;;;;;;0.77;0.77;;;28.50;92.50;;;;;;5243625;28;20303;-78
2022/04/29 12:59:09;;;;;;;0.60;0.60;;;28.20;92.80;;;;;;5246987;28;20020;-79
2022/04/29 13:01:41;;;;;;;0.45;0.45;;;27.90;92.60;;;;;;5246776;28;20027;-78
2022/04/29 13:04:12;;;;;;;0.52;0.52;;;27.80;92.70;;;;;;5219195;28;20348;-77
2022/04/29 13:06:44;;;;;;;1.58;1.17;;;28.10;92.50;;;;;;5224776;28;20031;-76
2022/04/29 13:09:15;;;;;;;0.50;0.50;;;30.80;90.80;;;;;;5207962;28;20033;-77
2022/04/29 13:11:47;;;;;;;0.85;0.85;;;32.40;91.70;;;;;;5242385;28;20027;-79
2022/04/29 13:14:18;;;;;;;0.95;0.95;;;33.30;87.70;;;;;;5244669;28;20037;-79
2022/04/29 13:16:50;;;;;;;0.77;0.77;;;32.00;90.00;;;;;;5228057;28;20360;-78
2022/04/29 13:19:21;;;;;;;9.25;1.65;;;31.30;90.30;;;;;;5246183;28;20579;-77
2022/04/29 13:21:52;;;;;;;0.80;0.80;;;31.30;88.80;;;;;;5245419;28;20038;-77
2022/04/29 13:24:23;;;;;;;0.60;0.60;;;30.70;89.50;;;;;;5243644;28;20195;-78
2022/04/29 13:26:55;;;;;;;0.60;0.60;;;29.00;90.00;;;;;;5220100;28;20055;-78
2022/04/29 13:29:26;;;;;;;0.70;0.70;;;26.60;91.50;;;;;;5244284;28;20226;-78
2022/04/29 13:31:57;;;;;;;0.95;0.68;;;27.40;91.50;;;;;;5244696;28;20349;-77
2022/04/29 13:34:30;;;;;;;0.50;0.50;;;26.50;91.30;;;;;;5244128;28;20350;-81
2022/04/29 13:37:02;;;;;;;0.90;0.90;;;24.90;93.00;;;;;;5245435;28;20031;-78
2022/04/29 13:39:33;;;;;;;0.60;0.60;;;25.00;92.90;;;;;;5246834;28;20544;-78
2022/04/29 13:42:06;;;;;;;1.27;0.60;;;25.60;92.60;;;;;;5245453;28;20033;-79
2022/04/29 13:44:37;;;;;;;1.05;1.00;;;27.40;91.70;;;;;;5245054;28;20256;-77
2022/04/29 13:47:09;;;;;;;1.02;1.02;;;29.00;90.60;;;;;;5226866;28;20033;-80
2022/04/29 13:49:40;;;;;;;0.77;0.77;;;30.00;90.60;;;;;;5246295;28;20063;-77
2022/04/29 13:55:03;;;;;;;0.85;0.85;;;30.30;87.80;;;;;;5257877;28;20016;-77
2022/04/29 13:57:35;;;;;;;1.25;1.15;;;29.80;88.80;;;;;;5251971;28;20039;-80
2022/04/29 14:00:11;;;;;;;0.50;0.50;;;27.80;90.50;;;;;;5245298;28;20464;-79